Main page
METAR-TAF:

METAR-TAF

Airports :

Ceuta Heliport

Ceuta, Spain

latitude: 35-53-33N, longitude: 5-18-21W, elevation: 2 m

Current weather observation

The report was made 36 minutes ago, at 15:30 UTC
Wind 3 kt from the West/Southwest, varying between Southwest and West/Northwest
Temperature 21°C
Humidity 69%
Pressure 1012 hPa
Visibility 10 km or more
no clouds below 1500 m and no cumulonimbus

METAR: GECE 221530Z AUTO 25003KT 220V290 CAVOK 21/15 Q1012

Time: 18:06 (16:06 UTC)

Forecast

The report was made 2 hours and 6 minutes ago, at 14:00 UTC
Forecast valid from 22 at 15 UTC to 23 at 15 UTC
Wind 5 kt from the South/Southeast
Visibility 10 km or more
no clouds below 1500 m and no cumulonimbus
Probability 40%
from 22 at 18 UTC to 22 at 23 UTC
Wind 10 kt from the West
Becoming
from 23 at 02 UTC to 23 at 04 UTC
Wind 10 kt from the East

TAF: GECE 221400Z 2215/2315 16005KT CAVOK TX18/2314Z TN16/2306Z PROB40 2218/2223 27010KT BECMG 2302/2304 08010KT

Weather observations and forecasts of more than 4000 airports (METAR and TAF reports).

The available stations are represented by yellow and red dots on the map.

Hover mouse over dot to see the name of the station.

Then click to see weather observations and forecasts.

To change the map : click on the green buttons with a black cross to zoom in, on the green button with a dash to zoom out, or on the green arrows for adjacent maps.


METAR-TAF: